Terminal Aerodrome Forecast
Issued by NWS

Home | Current Version | Previous Version | Text Only | Print | Product List | Glossary On
Versions: 1 2 3 4 5 6 7 8 9 10 11 12
000
FTUS45 KTWC 022324
TAFOLS
TAF
KOLS 022324Z 0300/0324 22008KT P6SM VCSH BKN080 BKN140
     FM030400 08006KT P6SM -SHRA SCT050 BKN080 OVC100
     FM031000 07008KT P6SM VCSH SCT060 OVC100
     FM032000 02007KT P6SM SCT070 BKN120=

USA.gov is the U.S. government's official web portal to all federal, state and local government web resources and services.